Terminal Aerodrome Forecast
Issued by NWS Paducah, KY

Home | Current Version | Previous Version | Text Only | Print | Product List | Glossary On
Versions: 1 2 3 4 5 6 7 8 9 10 11 12 13 14 15 16 17 18 19 20 21 22
168
FTUS43 KPAH 201733
TAFEVV
TAF
KEVV 201733Z 2018/2118 14007KT P6SM BKN250
     FM211200 18003KT P6SM BKN040
     FM211500 VRB03KT P6SM VCSH OVC025=

USA.gov is the U.S. government's official web portal to all federal, state and local government web resources and services.